Time;durP1;ratioP1;P1;durP2;ratioP2;P2;SDS_P1;SDS_P2;PMS_P1;PMS_P2;Temp;Humidity;BMP_temperature;BMP_pressure;BME280_temperature;BME280_humidity;BME280_pressure;Samples;Min_cycle;Max_cycle;Signal;HPM_P1;HPM_P2
2023/01/02 00:01:14;;;;;;;2.20;1.02;;;15.50;40.50;;;;;;5055107;28;20402;-75
2023/01/02 00:03:39;;;;;;;4.93;1.35;;;15.50;40.30;;;;;;5054990;28;20531;-76
2023/01/02 00:06:06;;;;;;;5.53;1.17;;;15.50;40.40;;;;;;5057093;28;20052;-77
2023/01/02 00:08:32;;;;;;;5.43;1.25;;;15.50;40.40;;;;;;5046211;28;20050;-77
2023/01/02 00:10:58;;;;;;;4.88;1.02;;;15.50;40.80;;;;;;5057397;28;20388;-76
2023/01/02 00:13:24;;;;;;;2.70;0.70;;;15.40;41.30;;;;;;5055105;28;20033;-77
2023/01/02 00:15:49;;;;;;;3.58;1.13;;;15.30;41.70;;;;;;5057951;28;20055;-77
2023/01/02 00:18:15;;;;;;;1.88;0.88;;;15.20;42.00;;;;;;5058930;28;20189;-77
2023/01/02 00:20:41;;;;;;;4.15;1.23;;;15.20;42.30;;;;;;5059000;28;20103;-76
2023/01/02 00:23:07;;;;;;;4.40;0.80;;;15.00;42.10;;;;;;5058897;28;20036;-75
2023/01/02 00:25:36;;;;;;;3.80;1.00;;;15.00;42.00;;;;;;5058910;28;20025;-76
2023/01/02 00:28:02;;;;;;;4.28;0.80;;;15.00;42.10;;;;;;5058803;28;20028;-77
2023/01/02 00:30:28;;;;;;;1.52;0.90;;;15.00;42.00;;;;;;5053330;28;20041;-77
2023/01/02 00:32:53;;;;;;;6.43;1.08;;;15.00;41.90;;;;;;5058592;28;20403;-77
2023/01/02 00:35:19;;;;;;;1.70;0.77;;;15.00;42.40;;;;;;5058801;28;20029;-77
2023/01/02 00:37:44;;;;;;;1.75;0.90;;;15.00;42.70;;;;;;5058850;28;20559;-77
2023/01/02 00:40:13;;;;;;;3.17;0.75;;;14.90;43.00;;;;;;5058015;28;20025;-77
2023/01/02 00:42:42;;;;;;;1.67;0.65;;;14.80;43.80;;;;;;5075553;28;20028;-77
2023/01/02 00:45:09;;;;;;;2.53;0.98;;;14.80;43.10;;;;;;5058680;28;20021;-75
2023/01/02 00:47:34;;;;;;;2.55;0.95;;;14.80;43.20;;;;;;5057599;28;20417;-75
2023/01/02 00:50:00;;;;;;;1.75;0.88;;;14.80;43.20;;;;;;5058216;28;20028;-75
2023/01/02 00:52:26;;;;;;;6.43;0.90;;;14.80;43.50;;;;;;5058318;28;20098;-75
2023/01/02 00:54:53;;;;;;;1.88;0.68;;;14.70;43.50;;;;;;5074911;28;20029;-75
2023/01/02 00:57:19;;;;;;;2.80;1.10;;;14.70;42.80;;;;;;5057738;28;20060;-77
2023/01/02 00:59:44;;;;;;;1.48;0.82;;;14.70;43.80;;;;;;5058445;28;20059;-75
2023/01/02 01:02:10;;;;;;;2.72;0.73;;;14.70;43.00;;;;;;5058357;28;20463;-76
2023/01/02 01:04:36;;;;;;;1.25;0.57;;;14.70;42.30;;;;;;5058366;28;20040;-77
2023/01/02 01:07:02;;;;;;;3.33;0.75;;;14.80;42.00;;;;;;5057746;28;20031;-76
2023/01/02 01:09:27;;;;;;;3.17;0.80;;;14.90;41.70;;;;;;5057785;28;20032;-76
2023/01/02 01:11:53;;;;;;;2.80;0.90;;;14.90;42.00;;;;;;5074378;28;20020;-77
2023/01/02 01:14:19;;;;;;;2.97;0.85;;;14.90;41.80;;;;;;5058089;28;20127;-76
2023/01/02 01:16:46;;;;;;;2.70;0.75;;;14.90;41.70;;;;;;5076517;28;20495;-76
2023/01/02 01:19:12;;;;;;;1.92;0.70;;;15.00;41.90;;;;;;5058767;28;20033;-76
2023/01/02 01:21:37;;;;;;;0.98;0.60;;;14.90;41.70;;;;;;5069483;28;20070;-76
2023/01/02 01:24:03;;;;;;;1.58;0.77;;;14.90;42.20;;;;;;5073159;28;20025;-76
2023/01/02 01:26:29;;;;;;;2.55;0.88;;;14.90;42.40;;;;;;5052642;28;20039;-76
2023/01/02 01:28:55;;;;;;;1.80;0.90;;;14.90;43.20;;;;;;5053587;28;20603;-76
2023/01/02 01:31:22;;;;;;;2.22;0.70;;;14.90;42.40;;;;;;5080307;28;20414;-77
2023/01/02 01:33:49;;;;;;;2.22;0.70;;;14.90;42.20;;;;;;5057421;28;20028;-78
2023/01/02 01:36:18;;;;;;;2.40;0.80;;;14.90;42.40;;;;;;5057096;28;20029;-76
2023/01/02 01:38:44;;;;;;;6.68;0.80;;;14.90;43.00;;;;;;5057486;28;20024;-76
2023/01/02 01:41:12;;;;;;;2.53;1.13;;;14.80;42.90;;;;;;5057287;28;20377;-77
2023/01/02 01:43:49;;;;;;;2.05;0.82;;;14.80;42.90;;;;;;5057160;28;20036;-76
2023/01/02 01:46:37;;;;;;;3.25;1.00;;;14.70;43.30;;;;;;5057521;28;20103;-76
2023/01/02 01:49:24;;;;;;;1.08;0.57;;;14.70;43.40;;;;;;5057094;28;20118;-76
2023/01/02 01:51:57;;;;;;;2.22;1.00;;;14.70;43.60;;;;;;5056968;28;20027;-76
2023/01/02 01:54:29;;;;;;;2.53;0.88;;;14.60;43.10;;;;;;5069581;28;20025;-76
2023/01/02 01:57:00;;;;;;;5.05;0.93;;;14.60;43.30;;;;;;5057450;28;20158;-76
2023/01/02 01:59:26;;;;;;;4.22;0.80;;;14.60;42.80;;;;;;5075393;28;20634;-77
2023/01/02 02:01:52;;;;;;;2.60;1.02;;;14.60;43.20;;;;;;5073321;28;20477;-76
2023/01/02 02:04:20;;;;;;;3.80;0.70;;;14.60;44.10;;;;;;5057365;28;20027;-76
2023/01/02 02:06:47;;;;;;;3.28;0.88;;;14.50;43.10;;;;;;5057036;28;20111;-76
2023/01/02 02:09:22;;;;;;;2.40;0.90;;;14.60;43.20;;;;;;5073318;28;20028;-76
2023/01/02 02:11:48;;;;;;;2.10;1.03;;;14.50;43.60;;;;;;5074476;28;20560;-76
2023/01/02 02:14:14;;;;;;;2.55;0.90;;;14.60;43.70;;;;;;5087282;28;20032;-75
2023/01/02 02:16:40;;;;;;;2.42;1.05;;;14.50;43.50;;;;;;5057109;28;20389;-77
2023/01/02 02:19:08;;;;;;;2.50;0.73;;;14.60;43.90;;;;;;5073271;28;20033;-76
2023/01/02 02:22:11;;;;;;;3.70;0.82;;;14.50;44.20;;;;;;5074436;28;20027;-77
2023/01/02 02:24:58;;;;;;;5.63;0.70;;;14.40;44.50;;;;;;5073201;28;20063;-79
2023/01/02 02:27:42;;;;;;;3.13;0.93;;;14.40;44.80;;;;;;5074317;28;20060;-76
2023/01/02 02:30:13;;;;;;;2.72;1.02;;;14.40;44.30;;;;;;5072750;28;20036;-77
2023/01/02 02:33:14;;;;;;;5.45;1.42;;;14.40;44.50;;;;;;5074160;28;20032;-77
2023/01/02 02:36:00;;;;;;;2.92;0.80;;;14.40;44.40;;;;;;5074249;28;20016;-76
2023/01/02 02:38:59;;;;;;;2.45;0.82;;;14.40;44.50;;;;;;5056222;28;20021;-77
2023/01/02 02:41:50;;;;;;;2.50;0.95;;;14.40;44.20;;;;;;5074141;28;20028;-76
2023/01/02 02:44:34;;;;;;;4.55;1.10;;;14.40;44.30;;;;;;5056035;28;20024;-76
2023/01/02 02:47:07;;;;;;;1.75;0.90;;;14.40;43.90;;;;;;5073875;28;20489;-77
2023/01/02 02:50:00;;;;;;;2.88;0.95;;;14.50;43.90;;;;;;5055970;28;20119;-77
2023/01/02 02:52:40;;;;;;;2.70;0.85;;;14.40;43.80;;;;;;5072353;28;20078;-76
2023/01/02 02:55:09;;;;;;;1.92;1.02;;;14.50;44.00;;;;;;5056122;28;20102;-77
2023/01/02 02:57:38;;;;;;;2.13;0.85;;;14.40;44.10;;;;;;5073839;28;20021;-77
2023/01/02 03:00:06;;;;;;;4.82;0.80;;;14.40;43.90;;;;;;5039238;28;20078;-78
2023/01/02 03:02:32;;;;;;;4.03;0.70;;;14.40;44.00;;;;;;5055292;28;20021;-76
2023/01/02 03:05:02;;;;;;;1.38;0.85;;;14.40;43.30;;;;;;5072209;28;20020;-76
2023/01/02 03:07:45;;;;;;;7.28;1.00;;;14.40;43.10;;;;;;5073603;28;20028;-74
2023/01/02 03:10:28;;;;;;;4.50;1.55;;;14.50;42.90;;;;;;5055710;28;20028;-75
2023/01/02 03:13:27;;;;;;;2.15;1.10;;;14.50;42.70;;;;;;5072536;28;20024;-75
2023/01/02 03:16:08;;;;;;;2.70;0.98;;;14.50;42.60;;;;;;5072320;28;20024;-76
2023/01/02 03:18:47;;;;;;;5.43;1.00;;;14.50;42.70;;;;;;5073656;28;20027;-75
2023/01/02 03:21:38;;;;;;;4.63;0.95;;;14.50;42.50;;;;;;5073419;28;20024;-76
2023/01/02 03:24:11;;;;;;;3.50;0.82;;;14.50;42.50;;;;;;5055376;28;20020;-76
2023/01/02 03:26:41;;;;;;;4.47;1.20;;;14.50;42.00;;;;;;5039064;28;20036;-75
2023/01/02 03:29:24;;;;;;;3.50;1.10;;;14.50;42.50;;;;;;5073045;28;20512;-76
2023/01/02 03:31:54;;;;;;;2.50;0.90;;;14.50;42.10;;;;;;5055267;28;20048;-75
2023/01/02 03:34:24;;;;;;;2.13;0.90;;;14.50;41.40;;;;;;5073139;28;20033;-76
2023/01/02 03:36:56;;;;;;;2.60;0.88;;;14.60;41.00;;;;;;5054981;28;20025;-75
2023/01/02 03:39:27;;;;;;;2.72;1.13;;;14.60;41.30;;;;;;5055386;28;20078;-78
2023/01/02 03:42:07;;;;;;;3.05;1.23;;;14.60;41.30;;;;;;5055040;28;20017;-76
2023/01/02 03:44:42;;;;;;;3.13;0.93;;;14.60;40.70;;;;;;5055277;28;20028;-76
2023/01/02 03:47:26;;;;;;;3.57;0.90;;;14.70;40.60;;;;;;5076137;28;20048;-77
2023/01/02 03:49:54;;;;;;;2.58;1.00;;;14.60;41.00;;;;;;5055440;28;20276;-78
2023/01/02 03:52:20;;;;;;;5.15;1.10;;;14.50;41.20;;;;;;5055369;28;20033;-77
2023/01/02 03:54:46;;;;;;;2.78;0.80;;;14.50;41.50;;;;;;5055017;28;20514;-78
2023/01/02 03:57:26;;;;;;;4.07;1.13;;;14.50;42.60;;;;;;5072823;28;20099;-74
2023/01/02 04:00:09;;;;;;;2.90;1.15;;;14.40;41.90;;;;;;5054813;28;20074;-77
2023/01/02 04:02:54;;;;;;;5.07;1.27;;;14.40;41.60;;;;;;5055106;28;20032;-77
2023/01/02 04:05:29;;;;;;;4.83;1.20;;;14.40;41.40;;;;;;5071854;28;20461;-76
2023/01/02 04:08:00;;;;;;;3.15;0.90;;;14.40;40.60;;;;;;5071799;28;20116;-76
2023/01/02 04:10:29;;;;;;;8.20;1.27;;;14.40;41.00;;;;;;5055242;28;20021;-76
2023/01/02 04:13:00;;;;;;;5.68;1.10;;;14.40;41.50;;;;;;5072940;28;20385;-77
2023/01/02 04:15:28;;;;;;;4.93;1.15;;;14.40;41.30;;;;;;5054875;28;20078;-75
2023/01/02 04:17:59;;;;;;;2.83;1.00;;;14.40;41.20;;;;;;5055003;28;20046;-74
2023/01/02 04:20:48;;;;;;;3.55;1.17;;;14.40;40.70;;;;;;5055066;28;20028;-74
2023/01/02 04:23:49;;;;;;;5.10;1.25;;;14.40;41.00;;;;;;5055193;28;20166;-77
2023/01/02 04:26:41;;;;;;;3.00;1.20;;;14.40;40.40;;;;;;5041431;28;20090;-77
2023/01/02 04:29:07;;;;;;;3.10;0.90;;;14.40;40.40;;;;;;5072790;28;20021;-74
2023/01/02 04:31:36;;;;;;;5.10;1.20;;;14.50;39.40;;;;;;5072534;28;20052;-75
2023/01/02 04:34:04;;;;;;;6.15;0.88;;;14.60;39.60;;;;;;5071331;28;20036;-75
2023/01/02 04:36:36;;;;;;;2.10;1.23;;;14.60;39.50;;;;;;5037795;28;20025;-74
2023/01/02 04:39:04;;;;;;;2.78;1.00;;;14.60;40.40;;;;;;5054249;28;20031;-75
2023/01/02 04:41:31;;;;;;;4.78;0.98;;;14.60;39.40;;;;;;5054766;28;20021;-75
2023/01/02 04:43:56;;;;;;;3.10;1.15;;;14.60;39.30;;;;;;5054440;28;20025;-76
2023/01/02 04:46:24;;;;;;;6.15;0.82;;;14.60;39.60;;;;;;5054544;28;20112;-76
2023/01/02 04:48:53;;;;;;;7.50;1.30;;;14.50;39.60;;;;;;5054429;28;20024;-75
2023/01/02 04:51:19;;;;;;;7.28;1.17;;;14.50;39.60;;;;;;5037985;28;20025;-76
2023/01/02 04:53:49;;;;;;;3.58;1.33;;;14.50;39.70;;;;;;5054151;28;20090;-76
2023/01/02 04:56:16;;;;;;;7.93;1.50;;;14.50;39.50;;;;;;5054650;28;20025;-75
2023/01/02 04:58:42;;;;;;;3.67;1.20;;;14.40;39.50;;;;;;5055648;28;20032;-75
2023/01/02 05:01:09;;;;;;;7.38;1.55;;;14.50;39.50;;;;;;5056919;28;20025;-76
2023/01/02 05:03:39;;;;;;;3.08;1.02;;;14.50;39.50;;;;;;5072768;28;20025;-75
2023/01/02 05:06:05;;;;;;;5.82;1.33;;;14.50;39.20;;;;;;5063231;28;20495;-75
2023/01/02 05:08:30;;;;;;;3.78;1.48;;;14.50;39.20;;;;;;5065958;28;20025;-75
2023/01/02 05:10:56;;;;;;;2.85;1.27;;;14.50;39.00;;;;;;5062168;28;20016;-75
2023/01/02 05:13:21;;;;;;;4.82;0.80;;;14.50;39.90;;;;;;5057969;28;20489;-75
2023/01/02 05:15:54;;;;;;;2.28;1.00;;;14.40;39.30;;;;;;5058040;28;20020;-75
2023/01/02 05:18:21;;;;;;;6.82;1.30;;;14.50;39.40;;;;;;5074336;28;20361;-73
2023/01/02 05:20:47;;;;;;;5.07;1.30;;;14.30;40.20;;;;;;5057697;28;20025;-76
2023/01/02 05:25:56;;;;;;;4.57;2.10;;;14.20;41.90;;;;;;5075870;28;20174;-74
2023/01/02 05:28:22;;;;;;;6.20;1.70;;;14.10;44.20;;;;;;5057653;28;20107;-77
2023/01/02 05:30:48;;;;;;;5.07;1.58;;;13.90;45.60;;;;;;5075484;28;20481;-76
2023/01/02 05:33:14;;;;;;;5.57;1.70;;;13.70;46.90;;;;;;5057672;28;20392;-77
2023/01/02 05:35:40;;;;;;;4.80;1.80;;;13.50;48.00;;;;;;5071899;28;20020;-75
2023/01/02 05:38:05;;;;;;;3.78;1.60;;;13.30;48.50;;;;;;5066121;28;20519;-75
2023/01/02 05:40:31;;;;;;;6.55;1.40;;;13.10;49.10;;;;;;5056985;28;20055;-75
2023/01/02 05:42:58;;;;;;;7.60;1.85;;;13.10;49.30;;;;;;5057494;28;20058;-75
2023/01/02 05:45:24;;;;;;;6.13;2.25;;;12.90;50.10;;;;;;5057239;28;20025;-75
2023/01/02 05:47:51;;;;;;;3.42;1.65;;;12.90;50.30;;;;;;5074314;28;20227;-75
2023/01/02 05:50:17;;;;;;;3.40;1.40;;;12.80;50.20;;;;;;5057062;28;20052;-75
2023/01/02 05:52:42;;;;;;;6.82;1.48;;;12.70;48.20;;;;;;5074068;28;20496;-74
2023/01/02 05:55:08;;;;;;;4.43;1.10;;;12.90;45.30;;;;;;5057433;28;20579;-76
2023/01/02 05:57:34;;;;;;;5.15;1.20;;;13.00;44.40;;;;;;5074992;28;20028;-77
2023/01/02 06:00:00;;;;;;;2.33;1.27;;;13.20;44.00;;;;;;5056993;28;20127;-74
2023/01/02 06:02:26;;;;;;;3.80;1.10;;;13.30;43.70;;;;;;5074014;28;20017;-75
2023/01/02 06:04:51;;;;;;;6.18;1.30;;;13.30;43.60;;;;;;5073606;28;20112;-77
2023/01/02 06:07:17;;;;;;;8.00;1.63;;;13.40;43.20;;;;;;5046760;28;20116;-76
2023/01/02 06:09:44;;;;;;;7.07;1.38;;;13.40;43.10;;;;;;5074935;28;20159;-76
2023/01/02 06:12:10;;;;;;;3.78;1.48;;;13.50;43.00;;;;;;5073113;28;20458;-74
2023/01/02 06:14:35;;;;;;;5.15;1.52;;;13.50;42.90;;;;;;5056927;28;20070;-74
2023/01/02 06:17:01;;;;;;;2.92;1.15;;;13.40;43.00;;;;;;5057069;28;20028;-76
2023/01/02 06:19:26;;;;;;;8.40;1.20;;;13.40;43.00;;;;;;5056265;28;20064;-75
2023/01/02 06:21:52;;;;;;;6.72;1.60;;;13.50;43.20;;;;;;5056940;28;20036;-75
2023/01/02 06:24:18;;;;;;;4.75;1.60;;;13.40;43.50;;;;;;5056491;28;20020;-76
2023/01/02 06:26:44;;;;;;;6.15;1.95;;;13.30;46.30;;;;;;5039899;28;20031;-75
2023/01/02 06:29:10;;;;;;;5.25;1.80;;;13.10;46.40;;;;;;5055973;28;20021;-76
2023/01/02 06:31:35;;;;;;;9.55;2.08;;;13.10;44.30;;;;;;5056110;28;20102;-76
2023/01/02 06:34:02;;;;;;;7.28;2.10;;;13.10;43.80;;;;;;5056318;28;20060;-77
2023/01/02 06:36:30;;;;;;;3.15;1.13;;;13.20;43.70;;;;;;5056232;28;20020;-76
2023/01/02 06:38:56;;;;;;;5.97;1.38;;;13.20;43.70;;;;;;5056199;28;20060;-78
2023/01/02 06:41:22;;;;;;;5.53;1.70;;;13.20;43.30;;;;;;5073586;28;20090;-79
2023/01/02 06:43:49;;;;;;;7.30;1.50;;;13.30;43.40;;;;;;5056006;28;20419;-76
2023/01/02 06:46:20;;;;;;;4.20;1.55;;;13.30;43.20;;;;;;5056250;28;20028;-76
2023/01/02 06:48:46;;;;;;;6.18;1.67;;;13.30;43.20;;;;;;5055936;28;20016;-76
2023/01/02 06:51:14;;;;;;;3.78;1.70;;;13.20;42.90;;;;;;5055537;28;20111;-76
2023/01/02 06:53:42;;;;;;;6.43;1.35;;;13.20;43.00;;;;;;5055643;28;20032;-75
2023/01/02 06:56:08;;;;;;;4.40;1.10;;;13.30;43.00;;;;;;5055664;28;20429;-80
2023/01/02 06:58:36;;;;;;;8.48;1.60;;;13.30;43.00;;;;;;5073220;28;20028;-76
2023/01/02 07:01:02;;;;;;;4.72;1.50;;;13.30;43.40;;;;;;5056092;28;20048;-76
2023/01/02 07:03:28;;;;;;;6.75;1.38;;;13.20;43.20;;;;;;5072456;28;20056;-75
2023/01/02 07:05:59;;;;;;;4.55;1.50;;;13.30;42.80;;;;;;5055280;28;20051;-76
2023/01/02 07:08:25;;;;;;;4.10;1.77;;;13.30;42.80;;;;;;5055360;28;20033;-76
2023/01/02 07:10:50;;;;;;;4.43;1.38;;;13.20;43.00;;;;;;5055644;28;20078;-76
2023/01/02 07:13:16;;;;;;;3.13;1.55;;;13.30;43.10;;;;;;5038917;28;20037;-79
2023/01/02 07:15:41;;;;;;;6.70;2.35;;;13.20;44.00;;;;;;5055520;28;20025;-76
2023/01/02 07:18:07;;;;;;;10.70;3.00;;;13.10;46.40;;;;;;5055449;28;20032;-76
2023/01/02 07:20:32;;;;;;;11.73;3.08;;;12.90;47.80;;;;;;5055400;28;20095;-76
2023/01/02 07:22:58;;;;;;;8.05;3.10;;;12.80;49.30;;;;;;5055225;28;20020;-76
2023/01/02 07:25:23;;;;;;;6.78;2.40;;;12.60;50.30;;;;;;5054730;28;20025;-78
2023/01/02 07:27:49;;;;;;;10.18;3.05;;;12.40;50.90;;;;;;5055345;28;20124;-76
2023/01/02 07:30:15;;;;;;;4.88;2.58;;;12.30;52.30;;;;;;5055251;28;20020;-77
2023/01/02 07:32:42;;;;;;;7.60;2.33;;;12.10;52.60;;;;;;5055378;28;20487;-74
2023/01/02 07:35:08;;;;;;;7.82;2.75;;;11.90;53.70;;;;;;5054910;28;20113;-77
2023/01/02 07:37:33;;;;;;;5.97;2.60;;;11.80;53.80;;;;;;5055077;28;20591;-76
2023/01/02 07:39:59;;;;;;;7.70;2.58;;;11.80;54.90;;;;;;5054662;28;20116;-76
2023/01/02 07:42:24;;;;;;;8.20;3.22;;;11.90;54.30;;;;;;5059996;28;20489;-77
2023/01/02 07:44:53;;;;;;;8.73;3.38;;;11.80;54.20;;;;;;5073175;28;20157;-78
2023/01/02 07:47:19;;;;;;;6.35;3.47;;;11.80;54.60;;;;;;5055720;28;20112;-76
2023/01/02 07:49:44;;;;;;;10.30;3.00;;;11.80;54.60;;;;;;5054886;28;20112;-77
2023/01/02 07:52:11;;;;;;;7.75;3.10;;;11.70;54.80;;;;;;5055066;28;20040;-77
2023/01/02 07:54:37;;;;;;;8.68;2.92;;;11.80;55.00;;;;;;5038240;28;20501;-79
2023/01/02 07:57:03;;;;;;;6.55;2.50;;;11.80;54.90;;;;;;5071558;28;20025;-77
2023/01/02 07:59:29;;;;;;;5.57;2.58;;;11.70;54.90;;;;;;5054768;28;20028;-77
2023/01/02 08:01:54;;;;;;;6.32;2.38;;;11.70;55.10;;;;;;5054866;28;20053;-77
2023/01/02 08:04:20;;;;;;;6.38;2.50;;;11.80;54.90;;;;;;5054852;28;20377;-79
2023/01/02 08:06:45;;;;;;;5.85;2.33;;;11.80;55.10;;;;;;5054507;28;20025;-77
2023/01/02 08:09:11;;;;;;;17.05;3.83;;;11.80;54.70;;;;;;5054893;28;20032;-77
2023/01/02 08:11:37;;;;;;;8.20;3.10;;;11.90;54.70;;;;;;5055378;28;20032;-77
2023/01/02 08:14:03;;;;;;;5.75;2.38;;;11.90;54.70;;;;;;5055070;28;20040;-75
2023/01/02 08:16:30;;;;;;;8.95;2.45;;;12.00;55.00;;;;;;5055955;28;20024;-82
2023/01/02 08:18:56;;;;;;;7.57;2.60;;;12.00;54.90;;;;;;5079589;28;20020;-79
2023/01/02 08:21:23;;;;;;;8.32;2.42;;;12.10;54.50;;;;;;5067711;28;20021;-79
2023/01/02 08:23:49;;;;;;;5.55;2.55;;;12.20;55.00;;;;;;5066200;28;20537;-76
2023/01/02 08:26:15;;;;;;;9.70;3.25;;;12.30;54.60;;;;;;5075872;28;20073;-77
2023/01/02 08:28:43;;;;;;;23.77;4.57;;;12.40;54.20;;;;;;5057371;28;20111;-79
2023/01/02 08:31:15;;;;;;;17.45;5.13;;;12.50;60.00;;;;;;5039311;28;20056;-77
2023/01/02 08:33:41;;;;;;;14.60;4.70;;;12.60;61.50;;;;;;5072461;28;20128;-77
2023/01/02 08:36:07;;;;;;;11.70;4.80;;;12.80;57.00;;;;;;5056249;28;20439;-76
2023/01/02 08:38:33;;;;;;;11.27;4.97;;;13.00;54.90;;;;;;5076872;28;20025;-76
2023/01/02 08:40:59;;;;;;;8.63;4.55;;;13.20;55.40;;;;;;5076122;28;20492;-76
2023/01/02 08:43:26;;;;;;;10.70;5.07;;;13.20;53.90;;;;;;5058636;28;20025;-76
2023/01/02 08:45:52;;;;;;;11.57;4.75;;;13.30;55.10;;;;;;5058498;28;20115;-75
2023/01/02 08:48:18;;;;;;;7.53;3.65;;;13.30;54.40;;;;;;5075535;28;20410;-76
2023/01/02 08:50:45;;;;;;;11.38;3.65;;;13.50;52.70;;;;;;5058159;28;20028;-77
2023/01/02 08:53:10;;;;;;;11.75;4.63;;;13.60;52.90;;;;;;5058579;28;20435;-76
2023/01/02 08:55:37;;;;;;;8.43;4.00;;;13.60;52.10;;;;;;5058253;28;20020;-76
2023/01/02 08:58:02;;;;;;;9.20;4.07;;;13.60;52.50;;;;;;5058091;28;20461;-76
2023/01/02 09:00:28;;;;;;;5.85;2.70;;;13.70;51.40;;;;;;5058449;28;20115;-76
2023/01/02 09:02:53;;;;;;;5.63;1.63;;;13.90;49.40;;;;;;5058108;28;20487;-76
2023/01/02 09:05:19;;;;;;;7.07;2.00;;;14.10;44.80;;;;;;5041286;28;20024;-75
2023/01/02 09:07:45;;;;;;;4.95;1.83;;;14.20;46.20;;;;;;5058769;28;20055;-75
2023/01/02 09:10:11;;;;;;;9.93;1.77;;;14.40;47.70;;;;;;5057141;28;20029;-77
2023/01/02 09:12:36;;;;;;;7.40;1.35;;;14.60;46.90;;;;;;5057521;28;20028;-75
2023/01/02 09:15:03;;;;;;;4.72;1.58;;;14.70;44.90;;;;;;5074300;28;20016;-76
2023/01/02 09:17:29;;;;;;;6.38;2.05;;;14.70;45.10;;;;;;5075140;28;20029;-75
2023/01/02 09:19:55;;;;;;;5.75;1.70;;;14.70;43.80;;;;;;5077110;28;20021;-76
2023/01/02 09:22:20;;;;;;;11.70;4.10;;;14.70;42.40;;;;;;5057620;28;20046;-76
2023/01/02 09:24:46;;;;;;;6.03;3.05;;;14.80;41.70;;;;;;5057669;28;20028;-76
2023/01/02 09:27:13;;;;;;;7.72;3.28;;;14.80;45.20;;;;;;5075411;28;20037;-77
2023/01/02 09:29:39;;;;;;;9.30;5.18;;;14.90;45.60;;;;;;5073925;28;20098;-76
2023/01/02 09:32:06;;;;;;;9.52;4.05;;;15.00;45.60;;;;;;5024060;28;20044;-78
2023/01/02 09:34:33;;;;;;;10.50;5.03;;;15.00;46.10;;;;;;5057111;28;20040;-75
2023/01/02 09:37:00;;;;;;;10.18;3.58;;;14.90;44.10;;;;;;5056819;28;20027;-75
2023/01/02 09:39:28;;;;;;;9.30;4.47;;;14.80;45.20;;;;;;5057514;28;20077;-77
2023/01/02 09:41:58;;;;;;;9.60;4.57;;;14.70;44.90;;;;;;5073723;28;20059;-74
2023/01/02 09:44:54;;;;;;;9.85;3.80;;;14.50;44.10;;;;;;5056238;28;20021;-75
2023/01/02 09:47:29;;;;;;;10.43;3.95;;;14.30;44.90;;;;;;5055715;28;20036;-76
2023/01/02 09:50:04;;;;;;;10.55;4.50;;;14.20;45.60;;;;;;5073021;28;20029;-76
2023/01/02 09:52:35;;;;;;;12.05;4.40;;;14.00;45.10;;;;;;5044339;28;20392;-76
2023/01/02 09:55:02;;;;;;;9.50;3.75;;;13.90;45.60;;;;;;5045977;28;20062;-75
2023/01/02 09:57:38;;;;;;;12.80;4.28;;;13.90;46.00;;;;;;5045350;28;20031;-74
2023/01/02 10:00:17;;;;;;;10.48;4.35;;;13.80;46.80;;;;;;5045974;28;20481;-74
2023/01/02 10:02:51;;;;;;;11.48;4.10;;;13.80;46.50;;;;;;5045785;28;20028;-75
2023/01/02 10:05:29;;;;;;;8.37;3.87;;;13.60;46.80;;;;;;5077617;28;20024;-74
2023/01/02 10:08:21;;;;;;;9.57;3.58;;;13.60;47.00;;;;;;5056806;28;20035;-73
2023/01/02 10:10:56;;;;;;;9.88;2.80;;;13.80;46.90;;;;;;5060609;28;20048;-74
2023/01/02 10:13:46;;;;;;;6.68;3.10;;;13.90;46.70;;;;;;5056827;28;20123;-75
2023/01/02 10:16:17;;;;;;;9.02;3.47;;;14.00;46.30;;;;;;5056411;28;20066;-74
2023/01/02 10:18:46;;;;;;;11.38;3.50;;;14.20;46.40;;;;;;5046787;28;20036;-74
2023/01/02 10:21:27;;;;;;;8.57;3.55;;;14.30;46.80;;;;;;5044361;28;20036;-76
2023/01/02 10:24:03;;;;;;;10.88;3.67;;;14.40;45.60;;;;;;5062076;28;20029;-76
2023/01/02 10:26:45;;;;;;;10.02;2.80;;;14.60;45.50;;;;;;5046933;28;20036;-75
2023/01/02 10:29:27;;;;;;;9.35;3.15;;;14.70;45.40;;;;;;5062816;28;20095;-75
2023/01/02 10:32:03;;;;;;;8.70;3.20;;;14.80;45.00;;;;;;5046090;28;20565;-74
2023/01/02 10:34:44;;;;;;;6.15;3.05;;;14.90;44.60;;;;;;5045548;28;20124;-75
2023/01/02 10:37:15;;;;;;;6.20;2.88;;;15.00;44.00;;;;;;5043077;28;20021;-77
2023/01/02 10:39:43;;;;;;;7.65;2.60;;;15.00;44.00;;;;;;5060988;28;20104;-75
2023/01/02 10:42:13;;;;;;;7.85;2.42;;;15.00;44.20;;;;;;5061705;28;20097;-76
2023/01/02 10:44:41;;;;;;;6.70;2.33;;;15.00;43.30;;;;;;5046170;28;20028;-75
2023/01/02 10:47:21;;;;;;;7.32;3.15;;;14.90;43.70;;;;;;5045415;28;20208;-76
2023/01/02 10:49:48;;;;;;;7.63;2.55;;;15.00;43.80;;;;;;5059697;28;20082;-76
2023/01/02 10:52:33;;;;;;;8.10;2.75;;;15.10;43.90;;;;;;5045544;28;20389;-76
2023/01/02 10:54:59;;;;;;;8.85;2.17;;;15.50;42.60;;;;;;5058389;28;20032;-79
2023/01/02 10:57:50;;;;;;;11.55;2.03;;;15.90;39.90;;;;;;5030387;28;20021;-76
2023/01/02 11:00:18;;;;;;;7.45;1.75;;;16.30;35.50;;;;;;5054769;28;20020;-76
2023/01/02 11:02:53;;;;;;;9.13;1.95;;;16.50;31.30;;;;;;5055479;28;20028;-74
2023/01/02 11:05:41;;;;;;;6.65;1.52;;;16.80;31.10;;;;;;5071447;28;20116;-74
2023/01/02 11:08:16;;;;;;;13.43;2.78;;;16.80;30.50;;;;;;5053301;28;20531;-75
2023/01/02 11:10:42;;;;;;;11.48;1.92;;;16.90;30.60;;;;;;5055374;28;20389;-75
2023/01/02 11:13:12;;;;;;;7.63;1.90;;;17.00;30.10;;;;;;5055345;28;20032;-74
2023/01/02 11:16:06;;;;;;;9.50;2.35;;;17.10;30.50;;;;;;5054996;28;20031;-74
2023/01/02 11:18:34;;;;;;;8.77;1.67;;;16.90;30.50;;;;;;5053679;28;20037;-80
2023/01/02 11:21:05;;;;;;;9.13;2.17;;;16.90;30.80;;;;;;5073261;28;20166;-75
2023/01/02 11:23:35;;;;;;;13.73;2.08;;;17.00;30.80;;;;;;5055115;28;20063;-79
2023/01/02 11:26:03;;;;;;;6.07;2.10;;;17.30;30.30;;;;;;5063295;28;20021;-77
2023/01/02 11:28:33;;;;;;;9.70;2.97;;;17.20;30.20;;;;;;5052222;28;20083;-74
2023/01/02 11:31:12;;;;;;;9.13;2.13;;;17.10;31.10;;;;;;5055308;28;20041;-74
2023/01/02 11:33:38;;;;;;;8.45;2.17;;;17.20;30.90;;;;;;5055097;28;20040;-75
2023/01/02 11:36:04;;;;;;;10.63;1.80;;;17.90;30.20;;;;;;5054825;28;20035;-74
2023/01/02 11:38:46;;;;;;;15.05;2.28;;;18.90;29.20;;;;;;5054912;28;20021;-74
2023/01/02 11:44:35;;;;;;;11.07;2.13;;;20.80;24.70;;;;;;5073291;28;20043;-80
2023/01/02 11:47:03;;;;;;;11.20;2.20;;;21.10;25.10;;;;;;5055074;28;20503;-79
2023/01/02 11:49:42;;;;;;;11.82;2.22;;;21.60;24.10;;;;;;5054886;28;20056;-78
2023/01/02 11:52:13;;;;;;;12.60;1.88;;;21.90;23.40;;;;;;5054546;28;20025;-80
2023/01/02 11:54:48;;;;;;;13.93;2.45;;;21.90;23.50;;;;;;5054722;28;20131;-80
2023/01/02 11:57:44;;;;;;;10.32;2.42;;;21.90;23.60;;;;;;5055101;28;20020;-82
2023/01/02 12:00:16;;;;;;;13.40;2.75;;;23.00;22.90;;;;;;5054603;28;20056;-77
2023/01/02 12:02:45;;;;;;;15.38;2.45;;;23.20;21.60;;;;;;5054952;28;20055;-82
2023/01/02 12:05:13;;;;;;;12.25;2.45;;;23.20;21.40;;;;;;5054982;28;20024;-82
2023/01/02 12:07:51;;;;;;;14.55;2.67;;;23.30;21.90;;;;;;5055126;28;20024;-80
2023/01/02 12:10:32;;;;;;;18.33;2.55;;;23.20;21.40;;;;;;5038978;28;20037;-81
2023/01/02 12:13:13;;;;;;;7.25;2.17;;;22.40;22.70;;;;;;5059217;28;20063;-80
2023/01/02 12:16:03;;;;;;;13.30;2.28;;;21.90;24.40;;;;;;5059146;28;20021;-84
2023/01/02 12:18:38;;;;;;;10.70;2.15;;;22.70;23.70;;;;;;5058764;28;20028;-80
2023/01/02 12:21:23;;;;;;;;;;;23.90;21.90;;;;;;5059225;28;20032;-82
2023/01/02 12:24:05;;;;;;;14.48;2.45;;;25.00;19.80;;;;;;5059182;28;20011;-82
2023/01/02 12:26:51;;;;;;;8.55;2.38;;;25.10;19.00;;;;;;5058534;28;20029;-76
2023/01/02 12:29:38;;;;;;;18.85;3.00;;;24.60;19.80;;;;;;5058050;28;20070;-77
2023/01/02 12:32:37;;;;;;;12.18;2.90;;;23.50;20.80;;;;;;5058596;28;20123;-83
2023/01/02 12:35:29;;;;;;;11.13;2.67;;;24.40;19.50;;;;;;5058655;28;20028;-75
2023/01/02 12:37:57;;;;;;;16.13;2.90;;;24.50;19.10;;;;;;5056983;28;20029;-81
2023/01/02 12:40:53;;;;;;;11.80;2.35;;;24.60;19.20;;;;;;5027131;28;20655;-81
2023/01/02 12:43:33;;;;;;;10.52;2.22;;;24.30;19.70;;;;;;5060881;28;20385;-78
2023/01/02 12:46:14;;;;;;;18.35;2.97;;;24.60;19.70;;;;;;5037844;28;20032;-83
2023/01/02 12:49:25;;;;;;;16.88;2.95;;;24.80;19.00;;;;;;5038206;28;20394;-79
2023/01/02 12:52:17;;;;;;;15.55;2.90;;;23.60;20.40;;;;;;5025997;28;20436;-76
2023/01/02 12:55:04;;;;;;;16.25;3.08;;;20.90;25.10;;;;;;5054187;28;20048;-75
2023/01/02 12:57:55;;;;;;;17.58;2.30;;;19.40;28.40;;;;;;5054575;28;20020;-79
2023/01/02 13:00:45;;;;;;;16.20;3.08;;;18.00;31.40;;;;;;5038193;28;20167;-75
2023/01/02 13:03:36;;;;;;;13.00;2.90;;;17.00;33.50;;;;;;5037841;28;20053;-75
2023/01/02 13:06:12;;;;;;;13.48;2.70;;;16.40;34.70;;;;;;5037913;28;20025;-74
2023/01/02 13:08:49;;;;;;;13.00;2.85;;;16.20;35.70;;;;;;5037935;28;20120;-76
2023/01/02 13:11:32;;;;;;;13.32;2.55;;;16.10;36.10;;;;;;5037632;28;20473;-75
2023/01/02 13:14:01;;;;;;;17.25;2.75;;;16.50;35.40;;;;;;5037742;28;20140;-75